createdAt,value
2022-08-05T00:00:18.702Z,1.83
2022-08-05T00:02:50.623Z,2.60
2022-08-05T00:06:01.876Z,2.27
2022-08-05T00:08:34.199Z,2.30
2022-08-05T00:11:00.938Z,2.67
2022-08-05T00:13:38.216Z,2.50
2022-08-05T00:16:08.755Z,2.30
2022-08-05T00:18:37.905Z,2.60
2022-08-05T00:21:08.255Z,2.50
2022-08-05T00:23:46.717Z,2.30
2022-08-05T00:26:22.400Z,2.20
2022-08-05T00:28:50.208Z,2.37
2022-08-05T00:31:53.046Z,2.50
2022-08-05T00:34:43.376Z,2.00
2022-08-05T00:37:12.833Z,2.57
2022-08-05T00:39:44.125Z,2.37
2022-08-05T00:42:11.742Z,2.37
2022-08-05T00:44:59.399Z,2.70
2022-08-05T00:47:27.207Z,2.50
2022-08-05T00:50:14.235Z,2.60
2022-08-05T00:52:42.335Z,2.87
2022-08-05T00:55:12.734Z,2.80
2022-08-05T00:57:58.012Z,2.23
2022-08-05T01:00:30.870Z,2.47
2022-08-05T01:02:59.701Z,2.50
2022-08-05T01:05:27.780Z,2.70
2022-08-05T01:08:30.768Z,2.60
2022-08-05T01:10:59.643Z,2.70
2022-08-05T01:13:57.577Z,2.87
2022-08-05T01:16:58.227Z,2.53
2022-08-05T01:20:02.424Z,2.93
2022-08-05T01:22:35.872Z,2.37
2022-08-05T01:25:39.753Z,2.37
2022-08-05T01:28:44.843Z,2.80
2022-08-05T01:31:29.973Z,2.70
2022-08-05T01:34:15.484Z,2.40
2022-08-05T01:36:55.100Z,2.30
2022-08-05T01:39:46.303Z,2.57
2022-08-05T01:42:15.223Z,2.50
2022-08-05T01:44:44.199Z,2.30
2022-08-05T01:47:15.233Z,2.40
2022-08-05T01:50:02.122Z,2.63
2022-08-05T01:52:34.622Z,2.57
2022-08-05T01:55:09.865Z,2.60
2022-08-05T01:58:09.366Z,2.90
2022-08-05T02:00:31.512Z,2.43
2022-08-05T02:03:29.053Z,2.60
2022-08-05T02:06:12.668Z,2.90
2022-08-05T02:08:58.294Z,3.23
2022-08-05T02:11:32.961Z,3.00
2022-08-05T02:14:04.191Z,3.40
2022-08-05T02:16:53.144Z,2.87
2022-08-05T02:19:47.228Z,3.37
2022-08-05T02:22:31.153Z,3.00
2022-08-05T02:25:09.085Z,3.30
2022-08-05T02:27:59.348Z,3.40
2022-08-05T02:30:34.325Z,2.97
2022-08-05T02:33:03.809Z,3.80
2022-08-05T02:35:37.656Z,3.27
2022-08-05T02:38:13.383Z,2.80
2022-08-05T02:40:47.028Z,3.47
2022-08-05T02:43:15.700Z,3.53
2022-08-05T02:45:51.462Z,3.10
2022-08-05T02:48:28.964Z,3.20
2022-08-05T02:51:02.726Z,2.83
2022-08-05T02:53:38.952Z,3.33
2022-08-05T02:56:08.034Z,3.00
2022-08-05T02:58:43.711Z,3.03
2022-08-05T03:01:17.073Z,3.20
2022-08-05T03:04:03.146Z,2.80
2022-08-05T03:06:54.424Z,3.00
2022-08-05T03:09:26.844Z,3.67
2022-08-05T03:12:04.967Z,3.17
2022-08-05T03:14:32.083Z,2.90
2022-08-05T03:16:59.559Z,3.40
2022-08-05T03:19:34.032Z,3.47
2022-08-05T03:22:01.748Z,3.20
2022-08-05T03:24:33.702Z,2.87
2022-08-05T03:27:02.299Z,3.07
2022-08-05T03:29:44.647Z,3.10
2022-08-05T03:32:19.478Z,3.27
2022-08-05T03:34:51.139Z,3.40
2022-08-05T03:37:19.778Z,3.07
2022-08-05T03:40:01.804Z,3.70
2022-08-05T03:42:32.946Z,3.60
2022-08-05T03:45:22.821Z,3.30
2022-08-05T03:47:51.470Z,3.70
2022-08-05T03:50:18.937Z,3.90
2022-08-05T03:55:34.377Z,4.00
2022-08-05T03:56:27.773Z,3.13
2022-08-05T03:59:04.131Z,3.63
2022-08-05T04:01:34.545Z,3.17
2022-08-05T04:04:09.478Z,3.47
2022-08-05T04:06:38.603Z,3.70
2022-08-05T04:09:26.194Z,3.30
2022-08-05T04:11:56.440Z,3.20
2022-08-05T04:14:29.551Z,3.20
2022-08-05T04:16:58.926Z,3.33
2022-08-05T04:19:27.497Z,3.43
2022-08-05T04:22:08.357Z,3.23
2022-08-05T04:24:44.579Z,3.37
2022-08-05T04:27:19.507Z,2.70
2022-08-05T04:30:07.655Z,3.20
2022-08-05T04:32:36.618Z,3.13
2022-08-05T04:35:05.855Z,3.40
2022-08-05T04:38:03.011Z,3.07
2022-08-05T04:40:20.717Z,3.97
2022-08-05T04:42:48.001Z,3.50
2022-08-05T04:45:22.911Z,3.87
2022-08-05T04:48:18.718Z,3.50
2022-08-05T04:51:02.949Z,3.50
2022-08-05T04:53:38.621Z,4.27
2022-08-05T04:56:33.696Z,3.40
2022-08-05T04:58:56.670Z,4.23
2022-08-05T05:02:05.769Z,3.77
2022-08-05T05:04:11.200Z,3.70
2022-08-05T05:06:44.741Z,3.43
2022-08-05T05:09:18.368Z,3.93
2022-08-05T05:11:54.306Z,4.50
2022-08-05T05:14:31.351Z,4.07
2022-08-05T05:17:00.705Z,3.80
2022-08-05T05:19:36.618Z,3.70
2022-08-05T05:22:23.406Z,3.70
2022-08-05T05:24:58.147Z,4.10
2022-08-05T05:27:45.820Z,3.43
2022-08-05T05:30:29.203Z,4.23
2022-08-05T05:33:08.892Z,3.20
2022-08-05T05:35:47.667Z,3.60
2022-08-05T05:38:26.936Z,3.40
2022-08-05T05:40:57.897Z,2.97
2022-08-05T05:43:57.154Z,3.33
2022-08-05T05:46:17.698Z,2.87
2022-08-05T05:48:48.003Z,2.80
2022-08-05T05:51:50.461Z,2.67
2022-08-05T05:54:18.138Z,2.70
2022-08-05T05:56:47.388Z,2.70
2022-08-05T05:59:14.474Z,2.90
2022-08-05T06:01:57.869Z,2.90
2022-08-05T06:04:25.709Z,8.17
2022-08-05T06:06:52.806Z,9.47
2022-08-05T06:09:27.444Z,10.10
2022-08-05T06:12:09.564Z,6.20
2022-08-05T06:14:37.261Z,2.93
2022-08-05T06:17:22.639Z,2.50
2022-08-05T06:19:56.742Z,2.40
2022-08-05T06:22:33.585Z,2.63
2022-08-05T06:25:59.173Z,2.37
2022-08-05T06:28:11.107Z,2.40
2022-08-05T06:30:36.784Z,2.33
2022-08-05T06:33:03.916Z,2.50
2022-08-05T06:36:05.702Z,2.37
2022-08-05T06:38:18.350Z,2.60
2022-08-05T06:41:08.419Z,2.47
2022-08-05T06:43:59.826Z,2.80
2022-08-05T06:46:30.118Z,2.63
2022-08-05T06:48:59.735Z,2.70
2022-08-05T06:51:30.760Z,2.33
2022-08-05T06:54:03.946Z,2.40
2022-08-05T06:56:34.584Z,2.53
2022-08-05T06:59:09.712Z,2.70
2022-08-05T07:01:37.170Z,2.57
2022-08-05T07:04:08.699Z,2.50
2022-08-05T07:06:35.931Z,2.30
2022-08-05T07:09:04.570Z,2.73
2022-08-05T07:11:37.239Z,2.70
2022-08-05T07:14:30.222Z,3.07
2022-08-05T07:18:08.485Z,2.77
2022-08-05T07:22:36.312Z,2.93
2022-08-05T07:25:22.592Z,2.80
2022-08-05T07:27:57.133Z,3.00
2022-08-05T07:30:31.963Z,3.03
2022-08-05T07:33:05.196Z,2.50
2022-08-05T07:36:04.527Z,2.53
2022-08-05T07:38:34.054Z,2.87
2022-08-05T07:41:34.980Z,2.70
2022-08-05T07:43:56.779Z,2.70
2022-08-05T07:46:28.461Z,2.40
2022-08-05T07:49:02.708Z,2.40
2022-08-05T07:51:48.921Z,2.80
2022-08-05T07:54:31.190Z,2.40
2022-08-05T07:57:22.457Z,2.43
2022-08-05T07:59:52.310Z,2.70
2022-08-05T08:02:30.792Z,2.73
2022-08-05T08:04:59.209Z,2.90
2022-08-05T08:07:28.375Z,3.00
2022-08-05T08:09:56.102Z,3.27
2022-08-05T08:12:33.446Z,3.03
2022-08-05T08:15:13.879Z,2.60
2022-08-05T08:17:46.039Z,3.23
2022-08-05T08:20:42.613Z,2.80
2022-08-05T08:24:00.478Z,2.80
2022-08-05T08:25:59.863Z,3.10
2022-08-05T08:28:36.909Z,1.90
2022-08-05T08:31:20.990Z,2.20
2022-08-05T08:33:51.706Z,2.23
2022-08-05T08:36:38.670Z,2.27
2022-08-05T08:39:15.761Z,2.70
2022-08-05T08:41:52.696Z,5.30
2022-08-05T08:45:19.740Z,2.80
2022-08-05T08:47:46.939Z,2.40
2022-08-05T08:50:31.952Z,2.47
2022-08-05T08:53:08.136Z,2.40
2022-08-05T08:56:05.252Z,2.17
2022-08-05T08:58:43.981Z,2.67
2022-08-05T09:01:17.029Z,2.20
2022-08-05T09:03:55.301Z,2.50
2022-08-05T09:06:28.170Z,2.20
2022-08-05T09:09:01.150Z,1.98
2022-08-05T09:11:51.672Z,2.28
2022-08-05T09:14:57.763Z,2.45
2022-08-05T09:17:15.970Z,2.30
2022-08-05T09:20:02.772Z,2.63
2022-08-05T09:23:18.657Z,2.10
2022-08-05T09:26:02.926Z,2.40
2022-08-05T09:28:33.382Z,2.22
2022-08-05T09:31:22.753Z,2.70
2022-08-05T09:33:55.107Z,2.35
2022-08-05T09:36:27.862Z,2.55
2022-08-05T09:39:18.351Z,1.90
2022-08-05T09:41:56.269Z,2.40
2022-08-05T09:44:43.657Z,2.10
2022-08-05T09:47:15.945Z,1.80
2022-08-05T09:50:01.315Z,1.90
2022-08-05T09:52:35.343Z,1.83
2022-08-05T09:55:06.266Z,1.70
2022-08-05T09:57:49.715Z,1.70
2022-08-05T10:00:26.373Z,1.77
2022-08-05T10:02:55.021Z,1.70
2022-08-05T10:05:28.485Z,1.70
2022-08-05T10:08:35.204Z,1.50
2022-08-05T10:10:53.921Z,1.88
2022-08-05T10:13:43.922Z,1.98
2022-08-05T10:16:41.818Z,1.88
2022-08-05T10:19:23.829Z,1.90
2022-08-05T10:21:59.401Z,2.10
2022-08-05T10:24:27.383Z,1.83
2022-08-05T10:27:00.345Z,1.90
2022-08-05T10:30:06.867Z,1.75
2022-08-05T10:33:02.068Z,1.70
2022-08-05T10:35:07.599Z,1.70
2022-08-05T10:37:40.448Z,2.10
2022-08-05T10:40:40.500Z,1.73
2022-08-05T10:43:35.944Z,1.80
2022-08-05T10:46:09.075Z,1.60
2022-08-05T10:48:56.679Z,1.90
2022-08-05T10:51:29.230Z,1.70
2022-08-05T10:54:23.153Z,2.25
2022-08-05T10:56:52.927Z,1.63
2022-08-05T11:00:04.183Z,1.70
2022-08-05T11:02:37.500Z,1.73
2022-08-05T11:05:09.312Z,2.20
2022-08-05T11:08:02.893Z,2.13
2022-08-05T11:10:37.312Z,1.90
2022-08-05T11:13:06.842Z,1.85
2022-08-05T11:16:00.346Z,1.80
2022-08-05T11:18:32.626Z,1.90
2022-08-05T11:21:11.336Z,1.58
2022-08-05T11:24:03.948Z,1.63
2022-08-05T11:26:32.554Z,1.95
2022-08-05T11:29:11.798Z,1.75
2022-08-05T11:31:54.492Z,1.73
2022-08-05T11:34:51.051Z,2.10
2022-08-05T11:38:36.951Z,1.73
2022-08-05T11:41:12.970Z,2.10
2022-08-05T11:44:05.829Z,1.77
2022-08-05T11:47:09.344Z,1.90
2022-08-05T11:49:33.820Z,1.73
2022-08-05T11:52:02.126Z,1.88
2022-08-05T11:54:40.674Z,1.88
2022-08-05T11:57:24.294Z,1.80
2022-08-05T11:59:53.489Z,1.88
2022-08-05T12:02:31.868Z,1.55
2022-08-05T12:05:07.054Z,1.80
2022-08-05T12:08:03.731Z,2.15
2022-08-05T12:10:43.301Z,1.63
2022-08-05T12:13:17.454Z,1.90
2022-08-05T12:15:49.612Z,1.90
2022-08-05T12:18:32.861Z,1.70
2022-08-05T12:21:31.877Z,2.00
2022-08-05T12:24:06.959Z,1.80
2022-08-05T12:26:37.180Z,1.60
2022-08-05T12:29:09.429Z,1.70
2022-08-05T12:31:45.891Z,1.90
2022-08-05T12:34:20.444Z,1.70
2022-08-05T12:36:50.699Z,2.15
2022-08-05T12:39:18.197Z,2.05
2022-08-05T12:41:45.802Z,1.75
2022-08-05T12:44:33.376Z,1.70
2022-08-05T12:47:02.235Z,2.30
2022-08-05T12:50:03.669Z,1.88
2022-08-05T12:52:32.451Z,1.83
2022-08-05T12:55:15.820Z,1.67
2022-08-05T12:58:39.087Z,2.10
2022-08-05T13:02:03.367Z,1.90
2022-08-05T13:03:18.858Z,1.85
2022-08-05T13:05:48.742Z,1.77
2022-08-05T13:08:20.425Z,2.10
2022-08-05T13:10:50.639Z,1.88
2022-08-05T13:14:04.608Z,1.50
2022-08-05T13:16:17.095Z,1.98
2022-08-05T13:18:59.005Z,1.90
2022-08-05T13:21:28.200Z,1.98
2022-08-05T13:24:05.654Z,2.20
2022-08-05T13:26:33.219Z,2.08
2022-08-05T13:29:00.767Z,2.00
2022-08-05T13:31:33.889Z,1.70
2022-08-05T13:34:21.798Z,1.95
2022-08-05T13:36:53.531Z,2.00
2022-08-05T13:39:24.586Z,1.80
2022-08-05T13:42:14.396Z,1.80
2022-08-05T13:44:45.697Z,2.20
2022-08-05T13:47:34.715Z,1.83
2022-08-05T13:50:04.228Z,1.73
2022-08-05T13:52:35.590Z,1.90
2022-08-05T13:55:07.788Z,1.83
2022-08-05T13:57:51.507Z,1.73
2022-08-05T14:00:26.770Z,1.67
2022-08-05T14:03:01.052Z,1.83
2022-08-05T14:05:29.419Z,1.70
2022-08-05T14:08:21.178Z,1.83
2022-08-05T14:11:03.099Z,1.95
2022-08-05T14:13:42.989Z,1.65
2022-08-05T14:16:11.261Z,3.50
2022-08-05T14:18:39.057Z,1.88
2022-08-05T14:22:08.435Z,1.63
2022-08-05T14:23:54.162Z,1.83
2022-08-05T14:26:36.982Z,1.70
2022-08-05T14:29:16.444Z,1.73
2022-08-05T14:32:03.859Z,1.70
2022-08-05T14:34:35.467Z,1.92
2022-08-05T14:37:04.764Z,1.73
2022-08-05T14:39:49.648Z,2.15
2022-08-05T14:42:21.828Z,1.50
2022-08-05T14:44:49.624Z,1.73
2022-08-05T14:47:17.374Z,2.08
2022-08-05T14:50:15.668Z,1.90
2022-08-05T14:52:53.080Z,2.10
2022-08-05T14:55:24.635Z,1.75
2022-08-05T14:57:54.706Z,1.80
2022-08-05T15:00:27.756Z,2.00
2022-08-05T15:02:58.070Z,1.80
2022-08-05T15:05:30.047Z,1.70
2022-08-05T15:08:17.878Z,1.67
2022-08-05T15:11:01.636Z,1.90
2022-08-05T15:13:45.897Z,1.80
2022-08-05T15:16:13.830Z,1.70
2022-08-05T15:18:41.315Z,2.20
2022-08-05T15:21:08.788Z,2.00
2022-08-05T15:23:35.918Z,1.90
2022-08-05T15:26:05.334Z,1.80
2022-08-05T15:28:34.439Z,2.10
2022-08-05T15:31:03.531Z,2.22
2022-08-05T15:34:05.630Z,1.90
2022-08-05T15:36:24.425Z,1.77
2022-08-05T15:40:59.811Z,1.80
2022-08-05T15:41:58.251Z,2.00
2022-08-05T15:44:28.057Z,2.00
2022-08-05T15:46:58.041Z,2.00
2022-08-05T15:49:53.726Z,1.95
2022-08-05T15:52:16.092Z,2.05
2022-08-05T15:54:44.465Z,1.55
2022-08-05T15:57:14.367Z,1.58
2022-08-05T15:59:43.377Z,1.52
2022-08-05T16:02:14.736Z,1.73
2022-08-05T16:04:46.840Z,1.73
2022-08-05T16:07:13.933Z,2.13
2022-08-05T16:09:43.417Z,1.63
2022-08-05T16:12:11.459Z,1.83
2022-08-05T16:14:39.567Z,2.05
2022-08-05T16:17:06.529Z,1.55
2022-08-05T16:20:05.576Z,1.95
2022-08-05T16:22:27.453Z,1.40
2022-08-05T16:24:55.341Z,1.77
2022-08-05T16:27:47.270Z,1.48
2022-08-05T16:30:23.179Z,2.30
2022-08-05T16:32:53.185Z,2.10
2022-08-05T16:35:20.405Z,2.10
2022-08-05T16:38:15.486Z,1.52
2022-08-05T16:40:51.615Z,1.65
2022-08-05T16:43:24.446Z,1.63
2022-08-05T16:46:05.868Z,1.67
2022-08-05T16:48:40.347Z,1.88
2022-08-05T16:51:09.050Z,1.30
2022-08-05T16:54:03.124Z,2.42
2022-08-05T16:56:27.928Z,1.45
2022-08-05T16:58:55.523Z,1.67
2022-08-05T17:01:23.404Z,1.67
2022-08-05T17:03:52.269Z,2.05
2022-08-05T17:06:20.608Z,1.75
2022-08-05T17:08:54.307Z,1.92
2022-08-05T17:11:23.380Z,1.40
2022-08-05T17:14:00.601Z,2.07
2022-08-05T17:16:37.840Z,1.35
2022-08-05T17:19:09.725Z,1.40
2022-08-05T17:21:39.783Z,1.70
2022-08-05T17:24:28.461Z,1.25
2022-08-05T17:26:58.552Z,1.60
2022-08-05T17:29:33.869Z,2.55
2022-08-05T17:32:17.390Z,1.43
2022-08-05T17:34:49.149Z,1.47
2022-08-05T17:37:41.166Z,1.60
2022-08-05T17:40:10.269Z,1.45
2022-08-05T17:42:41.802Z,1.63
2022-08-05T17:45:18.260Z,1.80
2022-08-05T17:47:53.426Z,1.60
2022-08-05T17:50:28.749Z,1.47
2022-08-05T17:53:01.096Z,2.13
2022-08-05T17:55:37.170Z,1.40
2022-08-05T17:58:11.291Z,1.40
2022-08-05T18:00:45.366Z,1.30
2022-08-05T18:06:11.245Z,1.53
2022-08-05T18:08:45.048Z,1.60
2022-08-05T18:11:24.793Z,1.80
2022-08-05T18:14:03.552Z,1.43
2022-08-05T18:16:32.055Z,1.37
2022-08-05T18:18:59.175Z,1.47
2022-08-05T18:22:06.993Z,1.50
2022-08-05T18:24:14.452Z,1.50
2022-08-05T18:26:41.759Z,1.93
2022-08-05T18:29:10.905Z,1.83
2022-08-05T18:31:38.471Z,1.80
2022-08-05T18:34:12.197Z,1.30
2022-08-05T18:36:41.273Z,1.97
2022-08-05T18:39:41.737Z,1.80
2022-08-05T18:42:06.094Z,1.70
2022-08-05T18:44:51.838Z,1.50
2022-08-05T18:47:22.820Z,1.70
2022-08-05T18:50:12.930Z,2.23
2022-08-05T18:52:50.784Z,1.80
2022-08-05T18:55:20.346Z,1.97
2022-08-05T18:57:53.125Z,1.70
2022-08-05T19:00:28.660Z,2.07
2022-08-05T19:02:57.535Z,1.90
2022-08-05T19:06:12.306Z,1.97
2022-08-05T19:08:17.509Z,1.77
2022-08-05T19:10:46.099Z,2.10
2022-08-05T19:13:15.930Z,2.43
2022-08-05T19:15:59.735Z,1.93
2022-08-05T19:18:30.803Z,1.97
2022-08-05T19:20:59.739Z,2.30
2022-08-05T19:24:05.272Z,2.20
2022-08-05T19:26:16.606Z,1.93
2022-08-05T19:28:43.934Z,2.27
2022-08-05T19:31:13.498Z,2.27
2022-08-05T19:33:48.656Z,2.10
2022-08-05T19:36:29.232Z,2.40
2022-08-05T19:39:01.028Z,2.43
2022-08-05T19:41:58.361Z,2.23
2022-08-05T19:44:18.495Z,2.80
2022-08-05T19:46:46.238Z,2.97
2022-08-05T19:49:17.094Z,2.40
2022-08-05T19:52:08.809Z,2.93
2022-08-05T19:54:37.260Z,3.17
2022-08-05T19:57:08.549Z,2.87
2022-08-05T20:00:00.994Z,2.50
2022-08-05T20:02:27.870Z,2.33
2022-08-05T20:04:59.217Z,2.73
2022-08-05T20:07:47.007Z,2.70
2022-08-05T20:10:16.604Z,2.70
2022-08-05T20:12:48.371Z,2.93
2022-08-05T20:15:48.757Z,3.07
2022-08-05T20:18:10.973Z,2.57
2022-08-05T20:20:56.814Z,2.83
2022-08-05T20:23:40.766Z,2.87
2022-08-05T20:26:16.462Z,2.63
2022-08-05T20:28:50.825Z,2.60
2022-08-05T20:31:28.350Z,2.57
2022-08-05T20:34:05.077Z,3.13
2022-08-05T20:36:32.301Z,3.07
2022-08-05T20:38:59.874Z,3.33
2022-08-05T20:41:44.027Z,2.60
2022-08-05T20:44:19.017Z,3.13
2022-08-05T20:46:58.437Z,3.07
2022-08-05T20:49:26.058Z,2.77
2022-08-05T20:51:54.626Z,3.23
2022-08-05T20:54:43.112Z,2.87
2022-08-05T20:57:24.734Z,3.20
2022-08-05T21:00:20.944Z,3.13
2022-08-05T21:03:00.201Z,2.87
2022-08-05T21:05:48.168Z,2.87
2022-08-05T21:08:15.936Z,3.30
2022-08-05T21:10:49.018Z,3.03
2022-08-05T21:13:26.223Z,2.90
2022-08-05T21:16:04.489Z,3.47
2022-08-05T21:18:32.366Z,3.90
2022-08-05T21:20:59.397Z,3.40
2022-08-05T21:23:26.435Z,3.60
2022-08-05T21:25:55.417Z,3.00
2022-08-05T21:28:23.566Z,3.10
2022-08-05T21:30:51.317Z,3.23
2022-08-05T21:33:22.522Z,3.33
2022-08-05T21:35:55.697Z,4.13
2022-08-05T21:38:26.521Z,3.10
2022-08-05T21:40:53.849Z,2.73
2022-08-05T21:43:24.601Z,2.80
2022-08-05T21:45:57.360Z,3.13
2022-08-05T21:48:25.070Z,3.10
2022-08-05T21:50:54.340Z,3.03
2022-08-05T21:53:27.335Z,3.43
2022-08-05T21:56:05.223Z,3.50
2022-08-05T21:58:33.859Z,3.53
2022-08-05T22:01:01.841Z,3.43
2022-08-05T22:03:49.027Z,3.80
2022-08-05T22:06:22.892Z,3.40
2022-08-05T22:09:02.083Z,3.93
2022-08-05T22:11:41.497Z,3.00
2022-08-05T22:14:37.259Z,3.50
2022-08-05T22:17:03.801Z,3.50
2022-08-05T22:20:03.348Z,4.07
2022-08-05T22:22:27.163Z,3.20
2022-08-05T22:25:18.136Z,3.37
2022-08-05T22:28:08.390Z,2.83
2022-08-05T22:30:43.994Z,3.20
2022-08-05T22:33:58.636Z,3.33
2022-08-05T22:36:10.129Z,3.10
2022-08-05T22:38:37.300Z,3.40
2022-08-05T22:41:09.738Z,3.30
2022-08-05T22:43:38.146Z,3.13
2022-08-05T22:46:11.983Z,3.37
2022-08-05T22:48:42.139Z,3.13
2022-08-05T22:51:22.346Z,3.37
2022-08-05T22:53:51.895Z,3.53
2022-08-05T22:56:30.010Z,3.10
2022-08-05T22:59:00.068Z,3.60
2022-08-05T23:02:05.191Z,3.30
2022-08-05T23:04:17.678Z,3.10
2022-08-05T23:06:44.695Z,3.33
2022-08-05T23:09:27.587Z,3.50
2022-08-05T23:12:02.972Z,3.40
2022-08-05T23:14:32.205Z,3.20
2022-08-05T23:17:24.537Z,2.73
2022-08-05T23:20:00.962Z,3.93
2022-08-05T23:22:30.728Z,3.43
2022-08-05T23:24:58.383Z,2.77
2022-08-05T23:27:31.220Z,3.23
2022-08-05T23:30:10.814Z,3.53
2022-08-05T23:32:38.002Z,3.37
2022-08-05T23:35:12.760Z,3.83
2022-08-05T23:37:39.923Z,3.17
2022-08-05T23:40:09.574Z,3.00
2022-08-05T23:42:38.708Z,3.83
2022-08-05T23:45:14.480Z,3.23
2022-08-05T23:47:47.828Z,3.83
2022-08-05T23:50:20.131Z,3.40
2022-08-05T23:52:49.704Z,3.63
2022-08-05T23:55:19.288Z,3.60
2022-08-05T23:57:49.048Z,3.93
